NATURA VA

 METAR AND TAF INFORMATION
METAR FOR GEML
ADDS - METARS form results

(1659 UTC 26 March 2019)
Data provider http://aviationweather.gov/metar/data/
 
METAR text: GEML 261630Z 06014KT 030V100 9000 BKN015 BKN020 16/13 Q1014
Conditions at: GEML (MELILLA , ES) observed 1630 UTC 26 March 2019
Temperature: 16.0°C (61°F)
Dewpoint: 13.0°C (55°F) [RH = 82%]
Pressure (altimeter): 29.94 inches Hg (1014.0 mb)
Winds: from the ENE (60 degrees) at 16 MPH (14 knots; 7.2 m/s)
Visibility: 6 miles ( 9 km)
Ceiling: 1500 feet AGL
Clouds: broken clouds at 1500 feet AGL
broken clouds at 2000 feet AGL
Weather: no significant weather observed at this time

METAR text: GEML 261600Z 07014G25KT 020V110 9000 BKN014 BKN019 16/13 Q1013
Conditions at: GEML (MELILLA , ES) observed 1600 UTC 26 March 2019
Temperature: 16.0°C (61°F)
Dewpoint: 13.0°C (55°F) [RH = 82%]
Pressure (altimeter): 29.91 inches Hg (1013.0 mb)
Winds: from the ENE (70 degrees) at 16 MPH (14 knots; 7.2 m/s)
gusting to 29 MPH (25 knots; 12.9 m/s)
Visibility: 6 miles ( 9 km)
Ceiling: 1400 feet AGL
Clouds: broken clouds at 1400 feet AGL
broken clouds at 1900 feet AGL
Weather: no significant weather observed at this time

Forecast for: GEML (MELILLA , ES)
Text: TAF GEML 261400Z 2615/2715 06015KT 9999 SCT009 BKN015 TX18/2713Z TN14/2706Z
Forecast period: 1500 UTC 26 March 2019 to 1500 UTC 27 March 2019
Forecast type: FROM: standard forecast or significant change
Winds: from the ENE (60 degrees) at 17 MPH (15 knots; 7.7 m/s)
Visibility: 6 or more miles 10+ km)
Ceiling: 1500 feet AGL
Clouds: scattered clouds at 900 feet AGL
broken clouds at 1500 feet AGL
Weather: no significant weather forecast for this period
Text: TEMPO 2615/2709 07020G33KT
Forecast period: 1500 UTC 26 March 2019 to 0900 UTC 27 March 2019
Forecast type: TEMPORARY: The following changes expected for less than half the time period
Winds: from the ENE (70 degrees) at 23 MPH (20 knots; 10.3 m/s)
gusting to 38 MPH (33 knots; 17.0 m/s)
Visibility: missing
Ceiling: unknown
Clouds: missing
Weather: no significant weather forecast for this period

 AIRPORT MAP

 RUNWAY INFORMATION
Runway 15 Runway length 4685 ft Runway width 148 ft
Runway elevation 156 ft Runway displaced threshold 755 ft Runway heading 146
Runway 33 Runway length 4685 ft Runway width 148 ft
Runway elevation 133 ft Runway displaced threshold 0 ft Runway heading 326

 AIRPORT FREQUENCIES
Type GND Name GND Frequency 121.7 MHZ
Type TWR Name TWR Frequency 118.5 MHZ

 AIRPORT NEAR NAVIGATION AIDS
Type VOR-DME Name Melilla Frequency 114250 KHZ
Type DME Name Melilla Frequency 117400 KHZ



Powered by Virtual Airlines Manager [v2.6.2]